sensor_id;sensor_type;location;lat;lon;timestamp;P1;durP1;ratioP1;P2;durP2;ratioP2
31728;SDS011;18309;43.658;1.312;2023-06-22T00:00:43;11.57;;;3.22;;
31728;SDS011;18309;43.658;1.312;2023-06-22T00:03:09;8.40;;;2.83;;
31728;SDS011;18309;43.658;1.312;2023-06-22T00:05:35;13.25;;;3.10;;
31728;SDS011;18309;43.658;1.312;2023-06-22T00:08:04;16.55;;;2.92;;
31728;SDS011;18309;43.658;1.312;2023-06-22T00:10:30;8.02;;;3.83;;
31728;SDS011;18309;43.658;1.312;2023-06-22T00:12:56;12.35;;;2.95;;
31728;SDS011;18309;43.658;1.312;2023-06-22T00:15:21;10.65;;;2.92;;
31728;SDS011;18309;43.658;1.312;2023-06-22T00:17:48;5.72;;;3.08;;
31728;SDS011;18309;43.658;1.312;2023-06-22T00:20:14;9.30;;;3.45;;
31728;SDS011;18309;43.658;1.312;2023-06-22T00:22:42;9.02;;;3.33;;
31728;SDS011;18309;43.658;1.312;2023-06-22T00:25:08;7.60;;;3.53;;
31728;SDS011;18309;43.658;1.312;2023-06-22T00:27:35;10.90;;;3.50;;
31728;SDS011;18309;43.658;1.312;2023-06-22T00:30:01;14.90;;;3.47;;
31728;SDS011;18309;43.658;1.312;2023-06-22T00:32:27;17.02;;;3.47;;
31728;SDS011;18309;43.658;1.312;2023-06-22T00:34:53;9.85;;;4.00;;
31728;SDS011;18309;43.658;1.312;2023-06-22T00:37:19;12.45;;;3.53;;
31728;SDS011;18309;43.658;1.312;2023-06-22T00:39:47;13.80;;;3.33;;
31728;SDS011;18309;43.658;1.312;2023-06-22T00:42:14;13.52;;;3.65;;
31728;SDS011;18309;43.658;1.312;2023-06-22T00:44:40;9.00;;;3.70;;
31728;SDS011;18309;43.658;1.312;2023-06-22T00:47:05;12.18;;;4.30;;
31728;SDS011;18309;43.658;1.312;2023-06-22T00:49:32;7.47;;;3.15;;
31728;SDS011;18309;43.658;1.312;2023-06-22T00:51:58;9.13;;;3.35;;
31728;SDS011;18309;43.658;1.312;2023-06-22T00:54:24;5.85;;;2.22;;
31728;SDS011;18309;43.658;1.312;2023-06-22T00:56:53;13.98;;;3.75;;
31728;SDS011;18309;43.658;1.312;2023-06-22T00:59:21;19.83;;;2.72;;
31728;SDS011;18309;43.658;1.312;2023-06-22T01:01:48;12.98;;;2.60;;
31728;SDS011;18309;43.658;1.312;2023-06-22T01:04:14;10.73;;;2.10;;
31728;SDS011;18309;43.658;1.312;2023-06-22T01:06:46;6.28;;;1.90;;
31728;SDS011;18309;43.658;1.312;2023-06-22T01:09:20;13.85;;;2.22;;
31728;SDS011;18309;43.658;1.312;2023-06-22T01:11:53;4.68;;;1.70;;
31728;SDS011;18309;43.658;1.312;2023-06-22T01:17:11;14.88;;;1.92;;
31728;SDS011;18309;43.658;1.312;2023-06-22T01:19:45;8.55;;;1.52;;
31728;SDS011;18309;43.658;1.312;2023-06-22T01:22:20;10.63;;;1.20;;
31728;SDS011;18309;43.658;1.312;2023-06-22T01:24:55;8.48;;;1.25;;
31728;SDS011;18309;43.658;1.312;2023-06-22T01:32:40;6.18;;;1.20;;
31728;SDS011;18309;43.658;1.312;2023-06-22T01:35:06;8.23;;;1.13;;
31728;SDS011;18309;43.658;1.312;2023-06-22T01:37:34;5.45;;;1.58;;
31728;SDS011;18309;43.658;1.312;2023-06-22T01:40:02;13.80;;;1.15;;
31728;SDS011;18309;43.658;1.312;2023-06-22T01:42:31;5.82;;;1.55;;
31728;SDS011;18309;43.658;1.312;2023-06-22T01:44:58;4.78;;;1.15;;
31728;SDS011;18309;43.658;1.312;2023-06-22T01:47:25;10.50;;;1.50;;
31728;SDS011;18309;43.658;1.312;2023-06-22T01:49:52;9.30;;;1.70;;
31728;SDS011;18309;43.658;1.312;2023-06-22T01:52:20;5.32;;;1.42;;
31728;SDS011;18309;43.658;1.312;2023-06-22T01:54:46;6.95;;;1.60;;
31728;SDS011;18309;43.658;1.312;2023-06-22T01:57:12;10.70;;;1.70;;
31728;SDS011;18309;43.658;1.312;2023-06-22T02:00:00;12.90;;;1.73;;
31728;SDS011;18309;43.658;1.312;2023-06-22T02:02:37;12.77;;;1.50;;
31728;SDS011;18309;43.658;1.312;2023-06-22T02:05:11;7.10;;;1.58;;
31728;SDS011;18309;43.658;1.312;2023-06-22T02:07:42;4.93;;;1.33;;
31728;SDS011;18309;43.658;1.312;2023-06-22T02:10:14;18.15;;;1.85;;
31728;SDS011;18309;43.658;1.312;2023-06-22T02:12:44;16.10;;;1.65;;
31728;SDS011;18309;43.658;1.312;2023-06-22T02:15:11;5.05;;;0.90;;
31728;SDS011;18309;43.658;1.312;2023-06-22T02:17:40;13.32;;;1.40;;
31728;SDS011;18309;43.658;1.312;2023-06-22T02:20:13;6.82;;;1.20;;
31728;SDS011;18309;43.658;1.312;2023-06-22T02:22:40;7.75;;;1.42;;
31728;SDS011;18309;43.658;1.312;2023-06-22T02:25:06;15.13;;;1.48;;
31728;SDS011;18309;43.658;1.312;2023-06-22T02:27:32;5.25;;;1.30;;
31728;SDS011;18309;43.658;1.312;2023-06-22T02:29:58;10.43;;;1.30;;
31728;SDS011;18309;43.658;1.312;2023-06-22T02:32:24;14.75;;;1.55;;
31728;SDS011;18309;43.658;1.312;2023-06-22T02:34:50;15.75;;;2.05;;
31728;SDS011;18309;43.658;1.312;2023-06-22T02:37:16;8.05;;;1.70;;
31728;SDS011;18309;43.658;1.312;2023-06-22T02:39:42;17.80;;;1.45;;
31728;SDS011;18309;43.658;1.312;2023-06-22T02:42:08;8.15;;;1.65;;
31728;SDS011;18309;43.658;1.312;2023-06-22T02:44:38;13.77;;;1.65;;
31728;SDS011;18309;43.658;1.312;2023-06-22T02:47:04;8.90;;;1.17;;
31728;SDS011;18309;43.658;1.312;2023-06-22T02:49:30;12.82;;;1.95;;
31728;SDS011;18309;43.658;1.312;2023-06-22T02:51:56;12.45;;;2.08;;
31728;SDS011;18309;43.658;1.312;2023-06-22T02:54:23;14.60;;;1.48;;
31728;SDS011;18309;43.658;1.312;2023-06-22T02:56:49;18.23;;;1.77;;
31728;SDS011;18309;43.658;1.312;2023-06-22T02:59:17;11.30;;;2.08;;
31728;SDS011;18309;43.658;1.312;2023-06-22T03:01:42;10.73;;;1.50;;
31728;SDS011;18309;43.658;1.312;2023-06-22T03:04:09;34.75;;;2.58;;
31728;SDS011;18309;43.658;1.312;2023-06-22T03:06:35;14.00;;;1.40;;
31728;SDS011;18309;43.658;1.312;2023-06-22T03:09:01;10.32;;;2.05;;
31728;SDS011;18309;43.658;1.312;2023-06-22T03:11:31;11.88;;;2.10;;
31728;SDS011;18309;43.658;1.312;2023-06-22T03:13:58;9.10;;;2.45;;
31728;SDS011;18309;43.658;1.312;2023-06-22T03:16:25;14.55;;;1.88;;
31728;SDS011;18309;43.658;1.312;2023-06-22T03:18:50;24.67;;;3.05;;
31728;SDS011;18309;43.658;1.312;2023-06-22T03:21:18;17.05;;;2.63;;
31728;SDS011;18309;43.658;1.312;2023-06-22T03:23:44;10.52;;;2.75;;
31728;SDS011;18309;43.658;1.312;2023-06-22T03:26:10;14.75;;;2.70;;
31728;SDS011;18309;43.658;1.312;2023-06-22T03:28:37;11.90;;;2.97;;
31728;SDS011;18309;43.658;1.312;2023-06-22T03:31:03;25.13;;;2.95;;
31728;SDS011;18309;43.658;1.312;2023-06-22T03:33:31;16.52;;;3.25;;
31728;SDS011;18309;43.658;1.312;2023-06-22T03:35:57;22.02;;;3.60;;
31728;SDS011;18309;43.658;1.312;2023-06-22T03:38:23;25.48;;;3.67;;
31728;SDS011;18309;43.658;1.312;2023-06-22T03:40:48;20.30;;;4.25;;
31728;SDS011;18309;43.658;1.312;2023-06-22T03:43:14;15.77;;;3.92;;
31728;SDS011;18309;43.658;1.312;2023-06-22T03:45:40;28.10;;;5.00;;
31728;SDS011;18309;43.658;1.312;2023-06-22T03:48:05;25.45;;;5.75;;
31728;SDS011;18309;43.658;1.312;2023-06-22T03:50:31;29.83;;;6.45;;
31728;SDS011;18309;43.658;1.312;2023-06-22T03:52:57;26.10;;;5.55;;
31728;SDS011;18309;43.658;1.312;2023-06-22T03:55:22;17.23;;;5.40;;
31728;SDS011;18309;43.658;1.312;2023-06-22T03:57:48;21.77;;;6.38;;
31728;SDS011;18309;43.658;1.312;2023-06-22T04:00:14;15.40;;;5.15;;
31728;SDS011;18309;43.658;1.312;2023-06-22T04:02:42;14.07;;;5.93;;
31728;SDS011;18309;43.658;1.312;2023-06-22T04:05:08;16.98;;;5.65;;
31728;SDS011;18309;43.658;1.312;2023-06-22T04:07:34;15.18;;;6.15;;
31728;SDS011;18309;43.658;1.312;2023-06-22T04:10:02;13.25;;;5.43;;
31728;SDS011;18309;43.658;1.312;2023-06-22T04:12:30;24.73;;;6.00;;
31728;SDS011;18309;43.658;1.312;2023-06-22T04:14:56;20.27;;;6.30;;
31728;SDS011;18309;43.658;1.312;2023-06-22T04:17:21;19.70;;;5.65;;
31728;SDS011;18309;43.658;1.312;2023-06-22T04:19:49;23.88;;;6.95;;
31728;SDS011;18309;43.658;1.312;2023-06-22T04:22:15;13.30;;;5.90;;
31728;SDS011;18309;43.658;1.312;2023-06-22T04:24:41;16.70;;;6.07;;
31728;SDS011;18309;43.658;1.312;2023-06-22T04:27:07;16.05;;;6.05;;
31728;SDS011;18309;43.658;1.312;2023-06-22T04:29:33;14.60;;;5.55;;
31728;SDS011;18309;43.658;1.312;2023-06-22T04:31:58;25.27;;;5.65;;
31728;SDS011;18309;43.658;1.312;2023-06-22T04:34:28;12.35;;;5.20;;
31728;SDS011;18309;43.658;1.312;2023-06-22T04:36:54;19.90;;;6.38;;
31728;SDS011;18309;43.658;1.312;2023-06-22T04:39:21;16.60;;;5.28;;
31728;SDS011;18309;43.658;1.312;2023-06-22T04:41:46;22.67;;;5.82;;
31728;SDS011;18309;43.658;1.312;2023-06-22T04:44:14;12.32;;;5.43;;
31728;SDS011;18309;43.658;1.312;2023-06-22T04:46:48;12.80;;;5.53;;
31728;SDS011;18309;43.658;1.312;2023-06-22T04:49:18;14.13;;;6.05;;
31728;SDS011;18309;43.658;1.312;2023-06-22T04:51:45;16.58;;;6.25;;
31728;SDS011;18309;43.658;1.312;2023-06-22T04:54:11;28.60;;;6.75;;
31728;SDS011;18309;43.658;1.312;2023-06-22T04:56:36;12.32;;;5.88;;
31728;SDS011;18309;43.658;1.312;2023-06-22T04:59:03;17.30;;;5.93;;
31728;SDS011;18309;43.658;1.312;2023-06-22T05:01:29;12.68;;;5.85;;
31728;SDS011;18309;43.658;1.312;2023-06-22T05:03:56;17.48;;;6.32;;
31728;SDS011;18309;43.658;1.312;2023-06-22T05:06:23;21.58;;;6.95;;
31728;SDS011;18309;43.658;1.312;2023-06-22T05:08:53;19.08;;;5.70;;
31728;SDS011;18309;43.658;1.312;2023-06-22T05:11:26;25.92;;;7.18;;
31728;SDS011;18309;43.658;1.312;2023-06-22T05:13:53;16.70;;;6.83;;
31728;SDS011;18309;43.658;1.312;2023-06-22T05:16:19;15.45;;;6.63;;
31728;SDS011;18309;43.658;1.312;2023-06-22T05:18:49;20.00;;;6.23;;
31728;SDS011;18309;43.658;1.312;2023-06-22T05:21:16;14.85;;;6.68;;
31728;SDS011;18309;43.658;1.312;2023-06-22T05:23:42;15.98;;;5.75;;
31728;SDS011;18309;43.658;1.312;2023-06-22T05:26:07;14.30;;;6.68;;
31728;SDS011;18309;43.658;1.312;2023-06-22T05:28:35;16.48;;;6.05;;
31728;SDS011;18309;43.658;1.312;2023-06-22T05:31:00;22.48;;;6.72;;
31728;SDS011;18309;43.658;1.312;2023-06-22T05:33:26;22.75;;;6.78;;
31728;SDS011;18309;43.658;1.312;2023-06-22T05:35:52;18.23;;;7.05;;
31728;SDS011;18309;43.658;1.312;2023-06-22T05:38:17;11.38;;;6.47;;
31728;SDS011;18309;43.658;1.312;2023-06-22T05:40:43;22.08;;;7.35;;
31728;SDS011;18309;43.658;1.312;2023-06-22T05:43:09;14.25;;;7.60;;
31728;SDS011;18309;43.658;1.312;2023-06-22T05:45:34;18.08;;;7.63;;
31728;SDS011;18309;43.658;1.312;2023-06-22T05:48:01;15.05;;;6.90;;
31728;SDS011;18309;43.658;1.312;2023-06-22T05:50:26;24.50;;;8.38;;
31728;SDS011;18309;43.658;1.312;2023-06-22T05:52:52;20.35;;;8.20;;
31728;SDS011;18309;43.658;1.312;2023-06-22T05:55:18;18.90;;;7.13;;
31728;SDS011;18309;43.658;1.312;2023-06-22T05:57:44;17.83;;;7.80;;
31728;SDS011;18309;43.658;1.312;2023-06-22T06:00:10;12.10;;;6.82;;
31728;SDS011;18309;43.658;1.312;2023-06-22T06:02:37;21.30;;;7.45;;
31728;SDS011;18309;43.658;1.312;2023-06-22T06:05:08;18.60;;;8.65;;
31728;SDS011;18309;43.658;1.312;2023-06-22T06:07:43;19.70;;;8.30;;
31728;SDS011;18309;43.658;1.312;2023-06-22T06:10:09;17.97;;;8.57;;
31728;SDS011;18309;43.658;1.312;2023-06-22T06:12:35;20.27;;;9.57;;
31728;SDS011;18309;43.658;1.312;2023-06-22T06:15:01;15.77;;;8.15;;
31728;SDS011;18309;43.658;1.312;2023-06-22T06:17:27;21.35;;;8.63;;
31728;SDS011;18309;43.658;1.312;2023-06-22T06:19:53;21.23;;;7.85;;
31728;SDS011;18309;43.658;1.312;2023-06-22T06:22:19;21.58;;;8.70;;
31728;SDS011;18309;43.658;1.312;2023-06-22T06:24:46;22.20;;;8.07;;
31728;SDS011;18309;43.658;1.312;2023-06-22T06:27:12;21.17;;;8.73;;
31728;SDS011;18309;43.658;1.312;2023-06-22T06:29:38;28.27;;;8.65;;
31728;SDS011;18309;43.658;1.312;2023-06-22T06:32:04;20.75;;;8.73;;
31728;SDS011;18309;43.658;1.312;2023-06-22T06:34:30;21.70;;;7.43;;
31728;SDS011;18309;43.658;1.312;2023-06-22T06:36:56;19.50;;;7.70;;
31728;SDS011;18309;43.658;1.312;2023-06-22T06:39:21;23.02;;;7.53;;
31728;SDS011;18309;43.658;1.312;2023-06-22T06:41:47;20.08;;;7.85;;
31728;SDS011;18309;43.658;1.312;2023-06-22T06:44:13;15.77;;;6.88;;
31728;SDS011;18309;43.658;1.312;2023-06-22T06:46:39;15.70;;;7.10;;
31728;SDS011;18309;43.658;1.312;2023-06-22T06:49:05;21.35;;;6.75;;
31728;SDS011;18309;43.658;1.312;2023-06-22T06:51:30;12.63;;;6.93;;
31728;SDS011;18309;43.658;1.312;2023-06-22T06:53:57;20.23;;;6.68;;
31728;SDS011;18309;43.658;1.312;2023-06-22T06:56:22;13.23;;;6.60;;
31728;SDS011;18309;43.658;1.312;2023-06-22T06:58:49;21.10;;;7.30;;
31728;SDS011;18309;43.658;1.312;2023-06-22T07:01:16;20.00;;;7.47;;
31728;SDS011;18309;43.658;1.312;2023-06-22T07:03:41;30.23;;;6.93;;
31728;SDS011;18309;43.658;1.312;2023-06-22T07:06:08;21.52;;;7.22;;
31728;SDS011;18309;43.658;1.312;2023-06-22T07:08:34;11.43;;;5.97;;
31728;SDS011;18309;43.658;1.312;2023-06-22T07:11:01;13.80;;;5.75;;
31728;SDS011;18309;43.658;1.312;2023-06-22T07:13:27;16.15;;;6.43;;
31728;SDS011;18309;43.658;1.312;2023-06-22T07:15:53;15.48;;;5.90;;
31728;SDS011;18309;43.658;1.312;2023-06-22T07:18:19;18.77;;;6.03;;
31728;SDS011;18309;43.658;1.312;2023-06-22T07:20:44;14.68;;;6.15;;
31728;SDS011;18309;43.658;1.312;2023-06-22T07:23:10;9.13;;;5.70;;
31728;SDS011;18309;43.658;1.312;2023-06-22T07:25:36;14.15;;;5.88;;
31728;SDS011;18309;43.658;1.312;2023-06-22T07:28:03;14.55;;;5.55;;
31728;SDS011;18309;43.658;1.312;2023-06-22T07:30:30;14.45;;;5.15;;
31728;SDS011;18309;43.658;1.312;2023-06-22T07:32:57;13.30;;;5.03;;
31728;SDS011;18309;43.658;1.312;2023-06-22T07:35:28;24.17;;;4.78;;
31728;SDS011;18309;43.658;1.312;2023-06-22T07:37:57;13.60;;;4.50;;
31728;SDS011;18309;43.658;1.312;2023-06-22T07:40:23;15.32;;;4.90;;
31728;SDS011;18309;43.658;1.312;2023-06-22T07:42:49;10.73;;;4.72;;
31728;SDS011;18309;43.658;1.312;2023-06-22T07:45:16;5.97;;;3.60;;
31728;SDS011;18309;43.658;1.312;2023-06-22T07:47:42;11.77;;;4.07;;
31728;SDS011;18309;43.658;1.312;2023-06-22T07:50:08;9.48;;;4.97;;
31728;SDS011;18309;43.658;1.312;2023-06-22T07:52:35;11.23;;;5.45;;
31728;SDS011;18309;43.658;1.312;2023-06-22T07:55:00;14.80;;;5.47;;
31728;SDS011;18309;43.658;1.312;2023-06-22T07:57:27;8.63;;;5.25;;
31728;SDS011;18309;43.658;1.312;2023-06-22T07:59:58;10.65;;;6.03;;
31728;SDS011;18309;43.658;1.312;2023-06-22T08:02:25;10.80;;;5.75;;
31728;SDS011;18309;43.658;1.312;2023-06-22T08:04:50;10.85;;;4.57;;
31728;SDS011;18309;43.658;1.312;2023-06-22T08:07:16;13.68;;;4.80;;
31728;SDS011;18309;43.658;1.312;2023-06-22T08:09:47;8.02;;;4.85;;
31728;SDS011;18309;43.658;1.312;2023-06-22T08:12:14;14.68;;;5.30;;
31728;SDS011;18309;43.658;1.312;2023-06-22T08:14:41;6.88;;;4.70;;
31728;SDS011;18309;43.658;1.312;2023-06-22T08:17:08;10.73;;;4.65;;
31728;SDS011;18309;43.658;1.312;2023-06-22T08:19:33;23.10;;;4.68;;
31728;SDS011;18309;43.658;1.312;2023-06-22T08:21:59;15.35;;;4.85;;
31728;SDS011;18309;43.658;1.312;2023-06-22T08:24:25;12.57;;;5.00;;
31728;SDS011;18309;43.658;1.312;2023-06-22T08:26:51;12.10;;;5.05;;
31728;SDS011;18309;43.658;1.312;2023-06-22T08:29:17;16.45;;;5.20;;
31728;SDS011;18309;43.658;1.312;2023-06-22T08:31:43;8.55;;;4.93;;
31728;SDS011;18309;43.658;1.312;2023-06-22T08:34:08;8.07;;;4.82;;
31728;SDS011;18309;43.658;1.312;2023-06-22T08:36:34;11.65;;;5.05;;
31728;SDS011;18309;43.658;1.312;2023-06-22T08:39:02;7.65;;;4.65;;
31728;SDS011;18309;43.658;1.312;2023-06-22T08:41:28;11.52;;;6.13;;
31728;SDS011;18309;43.658;1.312;2023-06-22T08:43:55;18.58;;;6.22;;
31728;SDS011;18309;43.658;1.312;2023-06-22T08:46:20;10.15;;;5.90;;
31728;SDS011;18309;43.658;1.312;2023-06-22T08:48:49;32.17;;;7.30;;
31728;SDS011;18309;43.658;1.312;2023-06-22T08:51:15;10.07;;;5.68;;
31728;SDS011;18309;43.658;1.312;2023-06-22T08:53:42;13.00;;;5.90;;
31728;SDS011;18309;43.658;1.312;2023-06-22T08:56:08;12.30;;;5.85;;
31728;SDS011;18309;43.658;1.312;2023-06-22T08:58:33;20.70;;;6.32;;
31728;SDS011;18309;43.658;1.312;2023-06-22T09:00:59;15.30;;;6.70;;
31728;SDS011;18309;43.658;1.312;2023-06-22T09:03:26;13.88;;;6.78;;
31728;SDS011;18309;43.658;1.312;2023-06-22T09:05:52;16.75;;;6.88;;
31728;SDS011;18309;43.658;1.312;2023-06-22T09:08:17;14.15;;;7.32;;
31728;SDS011;18309;43.658;1.312;2023-06-22T09:10:43;14.15;;;6.47;;
31728;SDS011;18309;43.658;1.312;2023-06-22T09:13:09;12.20;;;6.50;;
31728;SDS011;18309;43.658;1.312;2023-06-22T09:15:34;10.32;;;6.95;;
31728;SDS011;18309;43.658;1.312;2023-06-22T09:18:00;21.35;;;7.32;;
31728;SDS011;18309;43.658;1.312;2023-06-22T09:20:26;12.18;;;7.22;;
31728;SDS011;18309;43.658;1.312;2023-06-22T09:22:52;13.00;;;6.60;;
31728;SDS011;18309;43.658;1.312;2023-06-22T09:25:17;16.20;;;7.45;;
31728;SDS011;18309;43.658;1.312;2023-06-22T09:27:45;10.88;;;5.68;;
31728;SDS011;18309;43.658;1.312;2023-06-22T09:30:11;11.23;;;5.63;;
31728;SDS011;18309;43.658;1.312;2023-06-22T09:32:37;8.30;;;5.28;;
31728;SDS011;18309;43.658;1.312;2023-06-22T09:35:04;12.52;;;5.25;;
31728;SDS011;18309;43.658;1.312;2023-06-22T09:37:34;11.10;;;5.43;;
31728;SDS011;18309;43.658;1.312;2023-06-22T09:40:01;9.52;;;4.68;;
31728;SDS011;18309;43.658;1.312;2023-06-22T09:42:32;12.65;;;5.47;;
31728;SDS011;18309;43.658;1.312;2023-06-22T09:44:59;8.57;;;4.68;;
31728;SDS011;18309;43.658;1.312;2023-06-22T09:47:24;9.35;;;4.97;;
31728;SDS011;18309;43.658;1.312;2023-06-22T09:49:50;8.98;;;4.90;;
31728;SDS011;18309;43.658;1.312;2023-06-22T09:52:16;18.58;;;5.28;;
31728;SDS011;18309;43.658;1.312;2023-06-22T09:54:41;9.30;;;5.05;;
31728;SDS011;18309;43.658;1.312;2023-06-22T09:57:07;11.40;;;4.28;;
31728;SDS011;18309;43.658;1.312;2023-06-22T09:59:33;6.78;;;4.60;;
31728;SDS011;18309;43.658;1.312;2023-06-22T10:01:59;10.00;;;4.75;;
31728;SDS011;18309;43.658;1.312;2023-06-22T10:04:24;10.52;;;4.82;;
31728;SDS011;18309;43.658;1.312;2023-06-22T10:06:50;9.45;;;5.22;;
31728;SDS011;18309;43.658;1.312;2023-06-22T10:09:16;8.18;;;4.70;;
31728;SDS011;18309;43.658;1.312;2023-06-22T10:11:42;8.50;;;4.38;;
31728;SDS011;18309;43.658;1.312;2023-06-22T10:14:08;7.13;;;4.32;;
31728;SDS011;18309;43.658;1.312;2023-06-22T10:16:35;7.78;;;4.65;;
31728;SDS011;18309;43.658;1.312;2023-06-22T10:19:01;8.20;;;4.25;;
31728;SDS011;18309;43.658;1.312;2023-06-22T10:21:27;9.85;;;5.00;;
31728;SDS011;18309;43.658;1.312;2023-06-22T10:23:53;5.78;;;3.80;;
31728;SDS011;18309;43.658;1.312;2023-06-22T10:26:20;10.13;;;4.40;;
31728;SDS011;18309;43.658;1.312;2023-06-22T10:28:45;7.43;;;4.05;;
31728;SDS011;18309;43.658;1.312;2023-06-22T10:31:11;6.22;;;4.07;;
31728;SDS011;18309;43.658;1.312;2023-06-22T10:33:37;6.15;;;3.78;;
31728;SDS011;18309;43.658;1.312;2023-06-22T10:36:02;8.30;;;3.80;;
31728;SDS011;18309;43.658;1.312;2023-06-22T10:38:28;8.55;;;4.22;;
31728;SDS011;18309;43.658;1.312;2023-06-22T10:40:55;9.07;;;3.92;;
31728;SDS011;18309;43.658;1.312;2023-06-22T10:43:21;7.05;;;4.05;;
31728;SDS011;18309;43.658;1.312;2023-06-22T10:45:46;10.25;;;3.85;;
31728;SDS011;18309;43.658;1.312;2023-06-22T10:48:12;10.25;;;4.53;;
31728;SDS011;18309;43.658;1.312;2023-06-22T10:50:38;7.47;;;3.80;;
31728;SDS011;18309;43.658;1.312;2023-06-22T10:53:03;12.93;;;3.88;;
31728;SDS011;18309;43.658;1.312;2023-06-22T10:55:29;6.30;;;3.60;;
31728;SDS011;18309;43.658;1.312;2023-06-22T10:57:55;7.53;;;3.97;;
31728;SDS011;18309;43.658;1.312;2023-06-22T11:00:20;7.93;;;3.78;;
31728;SDS011;18309;43.658;1.312;2023-06-22T11:02:46;5.55;;;4.10;;
31728;SDS011;18309;43.658;1.312;2023-06-22T11:05:13;5.85;;;3.45;;
31728;SDS011;18309;43.658;1.312;2023-06-22T11:07:42;5.25;;;3.22;;
31728;SDS011;18309;43.658;1.312;2023-06-22T11:12:36;4.38;;;3.20;;
31728;SDS011;18309;43.658;1.312;2023-06-22T11:15:02;6.88;;;3.40;;
31728;SDS011;18309;43.658;1.312;2023-06-22T11:17:27;7.63;;;3.28;;
31728;SDS011;18309;43.658;1.312;2023-06-22T11:19:53;4.55;;;3.45;;
31728;SDS011;18309;43.658;1.312;2023-06-22T11:22:19;5.32;;;3.15;;
31728;SDS011;18309;43.658;1.312;2023-06-22T11:24:44;5.45;;;3.63;;
31728;SDS011;18309;43.658;1.312;2023-06-22T11:27:10;9.77;;;3.35;;
31728;SDS011;18309;43.658;1.312;2023-06-22T11:29:36;10.88;;;4.30;;
31728;SDS011;18309;43.658;1.312;2023-06-22T11:32:02;4.40;;;3.00;;
31728;SDS011;18309;43.658;1.312;2023-06-22T11:34:28;5.90;;;3.55;;
31728;SDS011;18309;43.658;1.312;2023-06-22T11:36:53;5.18;;;3.50;;
31728;SDS011;18309;43.658;1.312;2023-06-22T11:39:19;10.50;;;3.80;;
31728;SDS011;18309;43.658;1.312;2023-06-22T11:41:45;8.70;;;3.88;;
31728;SDS011;18309;43.658;1.312;2023-06-22T11:44:12;7.15;;;3.85;;
31728;SDS011;18309;43.658;1.312;2023-06-22T11:46:37;8.85;;;4.43;;
31728;SDS011;18309;43.658;1.312;2023-06-22T11:49:03;5.78;;;3.08;;
31728;SDS011;18309;43.658;1.312;2023-06-22T11:51:29;9.13;;;3.55;;
31728;SDS011;18309;43.658;1.312;2023-06-22T11:53:56;5.65;;;3.55;;
31728;SDS011;18309;43.658;1.312;2023-06-22T11:56:22;7.85;;;3.53;;
31728;SDS011;18309;43.658;1.312;2023-06-22T11:58:49;5.75;;;3.60;;
31728;SDS011;18309;43.658;1.312;2023-06-22T12:01:14;5.45;;;3.33;;
31728;SDS011;18309;43.658;1.312;2023-06-22T12:03:40;7.90;;;3.55;;
31728;SDS011;18309;43.658;1.312;2023-06-22T12:06:08;6.57;;;2.50;;
31728;SDS011;18309;43.658;1.312;2023-06-22T12:08:34;8.27;;;3.35;;
31728;SDS011;18309;43.658;1.312;2023-06-22T12:10:59;8.48;;;2.80;;
31728;SDS011;18309;43.658;1.312;2023-06-22T12:13:25;4.25;;;2.67;;
31728;SDS011;18309;43.658;1.312;2023-06-22T12:15:53;3.95;;;2.85;;
31728;SDS011;18309;43.658;1.312;2023-06-22T12:18:19;4.88;;;2.95;;
31728;SDS011;18309;43.658;1.312;2023-06-22T12:20:48;4.82;;;2.72;;
31728;SDS011;18309;43.658;1.312;2023-06-22T12:23:14;11.95;;;2.75;;
31728;SDS011;18309;43.658;1.312;2023-06-22T12:25:40;7.25;;;3.22;;
31728;SDS011;18309;43.658;1.312;2023-06-22T12:28:05;5.00;;;3.03;;
31728;SDS011;18309;43.658;1.312;2023-06-22T12:30:32;7.43;;;3.40;;
31728;SDS011;18309;43.658;1.312;2023-06-22T12:32:59;6.95;;;3.55;;
31728;SDS011;18309;43.658;1.312;2023-06-22T12:35:24;4.97;;;2.85;;
31728;SDS011;18309;43.658;1.312;2023-06-22T12:37:50;8.68;;;3.05;;
31728;SDS011;18309;43.658;1.312;2023-06-22T12:40:15;8.45;;;3.00;;
31728;SDS011;18309;43.658;1.312;2023-06-22T12:42:41;3.92;;;2.92;;
31728;SDS011;18309;43.658;1.312;2023-06-22T12:45:07;5.65;;;2.50;;
31728;SDS011;18309;43.658;1.312;2023-06-22T12:47:34;9.55;;;3.42;;
31728;SDS011;18309;43.658;1.312;2023-06-22T12:50:00;5.35;;;3.03;;
31728;SDS011;18309;43.658;1.312;2023-06-22T12:52:25;4.43;;;2.83;;
31728;SDS011;18309;43.658;1.312;2023-06-22T12:54:51;4.75;;;3.05;;
31728;SDS011;18309;43.658;1.312;2023-06-22T12:57:17;5.88;;;2.60;;
31728;SDS011;18309;43.658;1.312;2023-06-22T12:59:44;4.78;;;3.15;;
31728;SDS011;18309;43.658;1.312;2023-06-22T13:02:10;6.10;;;3.38;;
31728;SDS011;18309;43.658;1.312;2023-06-22T13:04:36;4.75;;;2.80;;
31728;SDS011;18309;43.658;1.312;2023-06-22T13:07:01;4.65;;;2.67;;
31728;SDS011;18309;43.658;1.312;2023-06-22T13:09:27;5.20;;;2.78;;
31728;SDS011;18309;43.658;1.312;2023-06-22T13:11:53;4.82;;;2.83;;
31728;SDS011;18309;43.658;1.312;2023-06-22T13:14:18;6.55;;;2.80;;
31728;SDS011;18309;43.658;1.312;2023-06-22T13:16:44;5.03;;;2.85;;
31728;SDS011;18309;43.658;1.312;2023-06-22T13:19:10;5.03;;;3.13;;
31728;SDS011;18309;43.658;1.312;2023-06-22T13:21:36;8.02;;;3.08;;
31728;SDS011;18309;43.658;1.312;2023-06-22T13:24:01;8.52;;;2.72;;
31728;SDS011;18309;43.658;1.312;2023-06-22T13:26:27;7.63;;;3.05;;
31728;SDS011;18309;43.658;1.312;2023-06-22T13:28:53;7.07;;;3.33;;
31728;SDS011;18309;43.658;1.312;2023-06-22T13:31:20;22.15;;;4.13;;
31728;SDS011;18309;43.658;1.312;2023-06-22T13:33:46;11.57;;;3.35;;
31728;SDS011;18309;43.658;1.312;2023-06-22T13:36:13;81.47;;;11.18;;
31728;SDS011;18309;43.658;1.312;2023-06-22T13:38:39;42.47;;;5.88;;
31728;SDS011;18309;43.658;1.312;2023-06-22T13:41:05;14.50;;;3.55;;
31728;SDS011;18309;43.658;1.312;2023-06-22T13:43:31;11.68;;;3.53;;
31728;SDS011;18309;43.658;1.312;2023-06-22T13:45:57;8.93;;;3.20;;
31728;SDS011;18309;43.658;1.312;2023-06-22T13:48:23;6.18;;;2.78;;
31728;SDS011;18309;43.658;1.312;2023-06-22T13:50:50;7.50;;;3.50;;
31728;SDS011;18309;43.658;1.312;2023-06-22T13:53:17;13.10;;;3.13;;
31728;SDS011;18309;43.658;1.312;2023-06-22T13:55:42;6.97;;;3.03;;
31728;SDS011;18309;43.658;1.312;2023-06-22T13:58:08;7.80;;;3.22;;
31728;SDS011;18309;43.658;1.312;2023-06-22T14:00:34;9.75;;;3.72;;
31728;SDS011;18309;43.658;1.312;2023-06-22T14:02:59;9.00;;;3.30;;
31728;SDS011;18309;43.658;1.312;2023-06-22T14:05:25;8.80;;;3.80;;
31728;SDS011;18309;43.658;1.312;2023-06-22T14:07:51;7.05;;;3.28;;
31728;SDS011;18309;43.658;1.312;2023-06-22T14:10:17;7.25;;;2.78;;
31728;SDS011;18309;43.658;1.312;2023-06-22T14:12:42;23.33;;;4.05;;
31728;SDS011;18309;43.658;1.312;2023-06-22T14:15:09;4.75;;;3.03;;
31728;SDS011;18309;43.658;1.312;2023-06-22T14:17:35;5.57;;;3.38;;
31728;SDS011;18309;43.658;1.312;2023-06-22T14:20:01;5.20;;;2.90;;
31728;SDS011;18309;43.658;1.312;2023-06-22T14:22:28;5.70;;;3.08;;
31728;SDS011;18309;43.658;1.312;2023-06-22T14:24:54;10.02;;;3.63;;
31728;SDS011;18309;43.658;1.312;2023-06-22T14:27:22;4.88;;;3.08;;
31728;SDS011;18309;43.658;1.312;2023-06-22T14:29:48;10.50;;;3.25;;
31728;SDS011;18309;43.658;1.312;2023-06-22T14:32:14;6.75;;;3.10;;
31728;SDS011;18309;43.658;1.312;2023-06-22T14:34:40;5.38;;;2.90;;
31728;SDS011;18309;43.658;1.312;2023-06-22T14:37:08;7.45;;;3.15;;
31728;SDS011;18309;43.658;1.312;2023-06-22T14:39:35;5.60;;;3.35;;
31728;SDS011;18309;43.658;1.312;2023-06-22T14:42:01;9.55;;;3.97;;
31728;SDS011;18309;43.658;1.312;2023-06-22T14:44:28;7.13;;;3.60;;
31728;SDS011;18309;43.658;1.312;2023-06-22T14:46:54;9.82;;;3.63;;